createdAt,value
2022-12-09T00:03:42.226Z,1.16
2022-12-09T00:08:45.923Z,1.16
2022-12-09T00:13:54.323Z,1.17
2022-12-09T00:18:58.020Z,1.17
2022-12-09T00:24:04.464Z,1.19
2022-12-09T00:29:08.150Z,1.18
2022-12-09T00:34:13.718Z,1.18
2022-12-09T00:39:17.033Z,1.18
2022-12-09T00:44:20.733Z,1.20
2022-12-09T00:49:23.822Z,1.20
2022-12-09T00:54:27.130Z,1.20
2022-12-09T00:59:30.450Z,1.22
2022-12-09T01:04:33.824Z,1.22
2022-12-09T01:09:37.353Z,1.23
2022-12-09T01:14:41.247Z,1.22
2022-12-09T01:19:45.713Z,1.22
2022-12-09T01:24:49.184Z,1.23
2022-12-09T01:29:52.645Z,1.22
2022-12-09T01:34:55.879Z,1.22
2022-12-09T01:39:59.341Z,1.22
2022-12-09T01:45:24.889Z,1.21
2022-12-09T01:50:29.874Z,1.21
2022-12-09T01:55:33.991Z,1.20
2022-12-09T02:00:37.940Z,1.20
2022-12-09T02:05:42.352Z,1.19
2022-12-09T02:11:21.247Z,1.20
2022-12-09T02:16:28.441Z,1.21
2022-12-09T02:22:00.813Z,1.22
2022-12-09T02:27:28.762Z,1.23
2022-12-09T02:33:12.658Z,1.24
2022-12-09T02:38:17.831Z,1.26
2022-12-09T02:43:26.221Z,1.26
2022-12-09T02:48:37.218Z,1.26
2022-12-09T02:53:42.918Z,1.26
2022-12-09T02:58:46.380Z,1.26
2022-12-09T03:03:54.215Z,1.27
2022-12-09T03:09:04.877Z,1.28
2022-12-09T03:14:21.613Z,1.29
2022-12-09T03:19:36.834Z,1.29
2022-12-09T03:24:44.327Z,1.28
2022-12-09T03:29:49.250Z,1.25
2022-12-09T03:34:58.630Z,1.25
2022-12-09T03:40:09.846Z,1.26
2022-12-09T03:45:20.186Z,1.26
2022-12-09T03:50:27.690Z,1.27
2022-12-09T03:55:38.861Z,1.29
2022-12-09T04:00:42.938Z,1.29
2022-12-09T04:05:47.833Z,1.28
2022-12-09T04:10:51.464Z,1.26
2022-12-09T04:15:54.845Z,1.24
2022-12-09T04:20:58.930Z,1.23
2022-12-09T04:26:02.831Z,1.23
2022-12-09T04:31:06.798Z,1.23
2022-12-09T04:36:13.153Z,1.19
2022-12-09T04:41:16.951Z,1.17
2022-12-09T04:46:20.416Z,1.17
2022-12-09T04:51:24.107Z,1.17
2022-12-09T04:56:27.324Z,1.17
2022-12-09T05:01:31.640Z,1.19
2022-12-09T05:06:35.331Z,1.20
2022-12-09T05:11:39.262Z,1.20
2022-12-09T05:16:42.748Z,1.19
2022-12-09T05:21:46.697Z,1.19
2022-12-09T05:26:50.777Z,1.18
2022-12-09T05:31:54.191Z,1.17
2022-12-09T05:36:57.945Z,1.18
2022-12-09T05:42:01.260Z,1.17
2022-12-09T05:47:05.340Z,1.17
2022-12-09T05:52:10.454Z,1.17
2022-12-09T05:57:13.756Z,1.16
2022-12-09T06:02:17.479Z,1.16
2022-12-09T06:07:21.470Z,1.16
2022-12-09T06:12:25.229Z,1.17
2022-12-09T06:17:29.220Z,1.17
2022-12-09T06:22:34.787Z,1.17
2022-12-09T06:27:38.407Z,1.17
2022-12-09T06:32:41.810Z,1.17
2022-12-09T06:37:45.912Z,1.16
2022-12-09T06:42:51.167Z,1.13
2022-12-09T06:47:55.082Z,1.14
2022-12-09T06:52:58.544Z,1.16
2022-12-09T06:58:01.887Z,1.16
2022-12-09T07:03:05.186Z,1.15
2022-12-09T07:08:09.372Z,1.13
2022-12-09T07:13:12.728Z,1.14
2022-12-09T07:18:16.174Z,1.16
2022-12-09T07:23:20.721Z,1.16
2022-12-09T07:28:24.428Z,1.16
2022-12-09T07:33:28.908Z,1.18
2022-12-09T07:38:32.327Z,1.20
2022-12-09T07:43:36.775Z,1.22
2022-12-09T07:48:40.799Z,1.25
2022-12-09T07:53:44.558Z,1.26
2022-12-09T07:58:51.463Z,1.27
2022-12-09T08:03:55.627Z,1.28
2022-12-09T08:09:01.805Z,1.30
2022-12-09T08:14:11.292Z,1.33
2022-12-09T08:19:16.424Z,1.36
2022-12-09T08:24:20.553Z,1.40
2022-12-09T08:29:24.410Z,1.43
2022-12-09T08:34:27.942Z,1.46
2022-12-09T08:39:31.777Z,1.47
2022-12-09T08:44:35.525Z,1.46
2022-12-09T08:49:39.347Z,1.45
2022-12-09T08:54:43.092Z,1.47
2022-12-09T08:59:46.700Z,1.52
2022-12-09T09:04:50.645Z,1.56
2022-12-09T09:09:54.764Z,1.60
2022-12-09T09:14:58.574Z,1.63
2022-12-09T09:20:02.210Z,1.64
2022-12-09T09:25:09.685Z,1.63
2022-12-09T09:30:14.439Z,1.62
2022-12-09T09:35:18.267Z,1.58
2022-12-09T09:40:23.372Z,1.57
2022-12-09T09:45:26.863Z,1.59
2022-12-09T09:50:44.571Z,1.61
2022-12-09T09:55:54.039Z,1.65
2022-12-09T10:00:57.577Z,1.68
2022-12-09T10:06:17.627Z,1.72
2022-12-09T10:11:42.973Z,1.78
2022-12-09T10:16:55.214Z,1.84
2022-12-09T10:22:09.674Z,1.90
2022-12-09T10:27:21.964Z,1.96
2022-12-09T10:32:30.776Z,2.01
2022-12-09T10:37:39.600Z,2.06
2022-12-09T10:43:11.751Z,2.08
2022-12-09T10:48:33.658Z,2.10
2022-12-09T10:53:46.749Z,2.13
2022-12-09T10:58:50.388Z,2.14
2022-12-09T11:03:55.030Z,2.18
2022-12-09T11:09:02.285Z,2.21
2022-12-09T11:14:23.271Z,2.23
2022-12-09T11:19:34.377Z,2.26
2022-12-09T11:24:38.578Z,2.26
2022-12-09T11:29:42.362Z,2.29
2022-12-09T11:34:47.040Z,2.42
2022-12-09T11:39:51.925Z,2.45
2022-12-09T11:45:07.826Z,2.35
2022-12-09T11:50:22.660Z,2.27
2022-12-09T11:55:28.213Z,2.20
2022-12-09T12:00:42.484Z,2.13
2022-12-09T12:05:50.560Z,2.07
2022-12-09T12:10:58.127Z,2.02
2022-12-09T12:16:07.775Z,2.00
2022-12-09T12:21:30.288Z,1.98
2022-12-09T12:27:01.654Z,1.97
2022-12-09T12:32:39.166Z,1.97
2022-12-09T12:37:51.693Z,1.96
2022-12-09T12:43:30.541Z,1.97
2022-12-09T12:49:11.328Z,2.00
2022-12-09T12:54:43.345Z,1.98
2022-12-09T13:00:02.803Z,1.97
2022-12-09T13:05:16.472Z,1.92
2022-12-09T13:10:39.946Z,1.85
2022-12-09T13:15:51.901Z,1.80
2022-12-09T13:20:57.414Z,1.79
2022-12-09T13:26:11.262Z,1.74
2022-12-09T13:31:20.393Z,1.70
2022-12-09T13:36:46.097Z,1.69
2022-12-09T13:42:15.466Z,1.65
2022-12-09T13:47:27.785Z,1.61
2022-12-09T13:52:44.847Z,1.55
2022-12-09T13:57:57.452Z,1.47
2022-12-09T14:03:12.887Z,1.41
2022-12-09T14:08:30.900Z,1.33
2022-12-09T14:13:35.844Z,1.27
2022-12-09T14:18:40.189Z,1.22
2022-12-09T14:24:09.611Z,1.17
2022-12-09T14:29:53.158Z,1.10
2022-12-09T14:35:01.276Z,1.05
2022-12-09T14:40:31.928Z,0.99
2022-12-09T14:45:55.044Z,0.95
2022-12-09T14:51:26.324Z,0.91
2022-12-09T14:56:33.368Z,0.87
2022-12-09T15:01:54.800Z,0.83
2022-12-09T15:07:13.783Z,0.80
2022-12-09T15:12:19.052Z,0.79
2022-12-09T15:17:31.552Z,0.78
2022-12-09T15:22:37.062Z,0.79
2022-12-09T15:27:42.565Z,0.78
2022-12-09T15:32:47.512Z,0.78
2022-12-09T15:37:55.844Z,0.78
2022-12-09T15:43:09.692Z,0.78
2022-12-09T15:48:28.997Z,0.78
2022-12-09T15:53:51.859Z,0.78
2022-12-09T15:59:14.234Z,0.77
2022-12-09T16:04:24.937Z,0.77
2022-12-09T16:09:31.269Z,0.78
2022-12-09T16:14:43.835Z,0.79
2022-12-09T16:19:49.415Z,0.81
2022-12-09T16:25:18.083Z,0.81
2022-12-09T16:30:27.324Z,0.81
2022-12-09T16:35:41.374Z,0.80
2022-12-09T16:40:45.596Z,0.80
2022-12-09T16:46:20.591Z,0.80
2022-12-09T16:51:26.634Z,0.81
2022-12-09T16:56:33.449Z,0.81
2022-12-09T17:01:42.117Z,0.80
2022-12-09T17:06:47.638Z,0.80
2022-12-09T17:11:52.262Z,0.80
2022-12-09T17:16:56.878Z,0.79
2022-12-09T17:22:01.411Z,0.80
2022-12-09T17:27:06.747Z,0.79
2022-12-09T17:32:11.605Z,0.79
2022-12-09T17:37:16.647Z,0.78
2022-12-09T17:42:21.290Z,0.77
2022-12-09T17:47:26.435Z,0.75
2022-12-09T17:52:30.980Z,0.75
2022-12-09T17:57:35.941Z,0.75
2022-12-09T18:02:40.337Z,0.74
2022-12-09T18:07:45.624Z,0.74
2022-12-09T18:12:49.221Z,0.74
2022-12-09T18:17:52.526Z,0.72
2022-12-09T18:22:55.731Z,0.70
2022-12-09T18:27:58.840Z,0.69
2022-12-09T18:33:02.967Z,0.68
2022-12-09T18:38:12.539Z,0.66
2022-12-09T18:43:16.858Z,0.64
2022-12-09T18:48:20.786Z,0.64
2022-12-09T18:53:24.217Z,0.63
2022-12-09T18:58:57.442Z,0.62
2022-12-09T19:03:55.535Z,0.60
2022-12-09T19:09:05.578Z,0.57
2022-12-09T19:14:12.004Z,0.57
2022-12-09T19:19:18.958Z,0.58
2022-12-09T19:24:28.618Z,0.60
2022-12-09T19:29:33.146Z,0.62
2022-12-09T19:34:38.578Z,0.65
2022-12-09T19:39:44.062Z,0.65
2022-12-09T19:45:01.270Z,0.64
2022-12-09T19:50:09.349Z,0.64
2022-12-09T19:55:15.474Z,0.63
2022-12-09T20:00:20.859Z,0.62
2022-12-09T20:05:26.949Z,0.60
2022-12-09T20:10:34.291Z,0.56
2022-12-09T20:15:39.606Z,0.49
2022-12-09T20:20:48.859Z,0.40
2022-12-09T20:25:54.841Z,0.34
2022-12-09T20:31:07.641Z,0.31
2022-12-09T20:36:16.080Z,0.28
2022-12-09T20:41:23.457Z,0.27
2022-12-09T20:46:32.826Z,0.25
2022-12-09T20:51:41.268Z,0.21
2022-12-09T20:56:46.012Z,0.14
2022-12-09T21:01:51.151Z,0.03
2022-12-09T21:06:55.699Z,-0.10
2022-12-09T21:12:01.713Z,-0.23
2022-12-09T21:17:08.263Z,-0.32
2022-12-09T21:22:15.073Z,-0.39
2022-12-09T21:27:22.028Z,-0.40
2022-12-09T21:32:27.855Z,-0.37
2022-12-09T21:37:32.911Z,-0.34
2022-12-09T21:42:37.686Z,-0.32
2022-12-09T21:47:42.656Z,-0.29
2022-12-09T21:52:47.303Z,-0.27
2022-12-09T21:57:51.858Z,-0.26
2022-12-09T22:02:57.514Z,-0.26
2022-12-09T22:08:02.226Z,-0.26
2022-12-09T22:13:07.162Z,-0.26
2022-12-09T22:18:11.263Z,-0.26
2022-12-09T22:23:16.028Z,-0.25
2022-12-09T22:28:20.118Z,-0.24
2022-12-09T22:33:25.161Z,-0.23
2022-12-09T22:38:29.726Z,-0.24
2022-12-09T22:43:38.174Z,-0.25
2022-12-09T22:48:44.178Z,-0.28
2022-12-09T22:53:52.745Z,-0.32
2022-12-09T22:58:56.358Z,-0.35
2022-12-09T23:04:00.581Z,-0.36
2022-12-09T23:09:05.619Z,-0.36
2022-12-09T23:14:08.647Z,-0.35
2022-12-09T23:19:13.674Z,-0.36
2022-12-09T23:24:24.300Z,-0.37
2022-12-09T23:29:28.610Z,-0.37
2022-12-09T23:34:31.719Z,-0.33
2022-12-09T23:39:35.025Z,-0.31
2022-12-09T23:44:38.237Z,-0.29
2022-12-09T23:49:41.649Z,-0.29
2022-12-09T23:54:44.587Z,-0.29
2022-12-09T23:59:47.755Z,-0.30
